createdAt,value
2017-05-09T00:00:29.143Z,6.80
2017-05-09T00:02:57.823Z,6.80
2017-05-09T00:05:26.468Z,6.80
2017-05-09T00:07:54.715Z,6.80
2017-05-09T00:10:23.699Z,6.70
2017-05-09T00:12:52.338Z,6.60
2017-05-09T00:15:20.972Z,6.50
2017-05-09T00:17:49.646Z,6.40
2017-05-09T00:20:18.659Z,6.40
2017-05-09T00:22:47.295Z,6.50
2017-05-09T00:25:16.330Z,6.50
2017-05-09T00:27:44.973Z,6.50
2017-05-09T00:30:13.222Z,6.50
2017-05-09T00:32:41.971Z,6.40
2017-05-09T00:35:10.215Z,6.40
2017-05-09T00:37:39.222Z,6.30
2017-05-09T00:40:08.215Z,6.30
2017-05-09T00:42:37.222Z,6.40
2017-05-09T00:45:05.583Z,6.40
2017-05-09T00:47:33.949Z,6.50
2017-05-09T00:50:02.962Z,6.20
2017-05-09T00:52:31.603Z,6.10
2017-05-09T00:55:00.258Z,6.10
2017-05-09T00:57:28.899Z,6.20
2017-05-09T00:59:57.147Z,6.20
2017-05-09T01:02:25.826Z,6.10
2017-05-09T01:04:54.472Z,6.10
2017-05-09T01:07:23.110Z,6.00
2017-05-09T01:09:51.595Z,6.00
2017-05-09T01:12:20.602Z,6.20
2017-05-09T01:14:49.238Z,6.10
2017-05-09T01:17:17.659Z,6.20
2017-05-09T01:19:46.296Z,6.10
2017-05-09T01:22:14.930Z,6.00
2017-05-09T01:24:43.626Z,6.00
2017-05-09T01:27:12.231Z,5.90
2017-05-09T01:29:40.866Z,6.00
2017-05-09T01:32:09.137Z,6.00
2017-05-09T01:34:37.786Z,6.10
2017-05-09T01:37:06.439Z,6.10
2017-05-09T01:39:35.114Z,6.10
2017-05-09T01:42:03.754Z,6.10
2017-05-09T01:44:32.389Z,6.10
2017-05-09T01:47:01.048Z,6.10
2017-05-09T01:49:29.679Z,6.00
2017-05-09T01:51:58.311Z,6.00
2017-05-09T01:54:27.195Z,6.10
2017-05-09T01:56:56.199Z,6.00
2017-05-09T01:59:24.837Z,5.90
2017-05-09T02:01:53.749Z,5.90
2017-05-09T02:04:22.843Z,5.90
2017-05-09T02:06:51.081Z,5.90
2017-05-09T02:09:20.118Z,5.80
2017-05-09T02:11:49.047Z,5.80
2017-05-09T02:14:17.682Z,5.80
2017-05-09T02:16:46.884Z,5.90
2017-05-09T02:19:15.133Z,5.90
2017-05-09T02:21:43.382Z,6.00
2017-05-09T02:24:12.046Z,5.90
2017-05-09T02:26:40.282Z,5.90
2017-05-09T02:29:08.922Z,5.90
2017-05-09T02:31:37.601Z,5.90
2017-05-09T02:34:06.237Z,5.80
2017-05-09T02:36:34.874Z,5.70
2017-05-09T02:39:03.805Z,5.80
2017-05-09T02:41:32.050Z,5.80
2017-05-09T02:44:00.687Z,5.80
2017-05-09T02:46:29.346Z,5.70
2017-05-09T02:48:57.587Z,5.70
2017-05-09T02:51:26.224Z,5.80
2017-05-09T02:53:54.966Z,5.70
2017-05-09T02:56:23.209Z,5.70
2017-05-09T02:58:51.843Z,5.60
2017-05-09T03:01:20.969Z,5.60
2017-05-09T03:03:49.607Z,5.70
2017-05-09T03:06:17.850Z,5.70
2017-05-09T03:08:46.521Z,5.70
2017-05-09T03:11:15.409Z,5.70
2017-05-09T03:13:44.039Z,5.80
2017-05-09T03:16:13.075Z,5.80
2017-05-09T03:18:41.309Z,5.80
2017-05-09T03:21:10.314Z,5.70
2017-05-09T03:23:39.295Z,5.70
2017-05-09T03:26:07.529Z,5.70
2017-05-09T03:28:36.166Z,5.70
2017-05-09T03:31:04.832Z,5.70
2017-05-09T03:33:33.843Z,5.70
2017-05-09T03:36:02.485Z,5.70
2017-05-09T03:38:31.155Z,5.90
2017-05-09T03:40:59.789Z,5.70
2017-05-09T03:43:28.434Z,5.70
2017-05-09T03:45:57.550Z,5.80
2017-05-09T03:48:26.560Z,5.70
2017-05-09T03:50:55.196Z,5.70
2017-05-09T03:53:23.836Z,5.70
2017-05-09T03:55:52.468Z,5.90
2017-05-09T03:58:21.107Z,5.70
2017-05-09T04:00:49.784Z,5.70
2017-05-09T04:03:18.028Z,5.70
2017-05-09T04:05:47.025Z,5.70
2017-05-09T04:08:15.900Z,5.70
2017-05-09T04:10:44.905Z,5.70
2017-05-09T04:13:13.542Z,5.70
2017-05-09T04:15:42.206Z,5.70
2017-05-09T04:18:10.451Z,5.70
2017-05-09T04:20:39.086Z,5.70
2017-05-09T04:23:08.113Z,5.70
2017-05-09T04:25:36.755Z,5.80
2017-05-09T04:28:05.629Z,5.80
2017-05-09T04:30:34.498Z,5.80
2017-05-09T04:33:03.138Z,5.80
2017-05-09T04:35:31.779Z,5.70
2017-05-09T04:38:00.530Z,5.80
2017-05-09T04:40:28.767Z,5.80
2017-05-09T04:42:57.402Z,5.80
2017-05-09T04:45:26.398Z,5.90
2017-05-09T04:47:54.648Z,5.90
2017-05-09T04:50:23.287Z,5.90
2017-05-09T04:52:51.930Z,5.80
2017-05-09T04:55:20.574Z,5.80
2017-05-09T04:57:49.210Z,6.00
2017-05-09T05:00:18.165Z,6.00
2017-05-09T05:02:46.406Z,6.00
2017-05-09T05:05:15.042Z,6.20
2017-05-09T05:07:43.843Z,6.00
2017-05-09T05:10:12.478Z,5.90
2017-05-09T05:12:41.115Z,5.90
2017-05-09T05:15:09.793Z,6.00
2017-05-09T05:17:38.034Z,6.00
2017-05-09T05:20:06.289Z,6.10
2017-05-09T05:22:35.158Z,6.70
2017-05-09T05:25:03.812Z,6.80
2017-05-09T05:27:32.456Z,7.10
2017-05-09T05:30:00.943Z,7.20
2017-05-09T05:32:29.590Z,7.30
2017-05-09T05:34:58.240Z,7.40
2017-05-09T05:37:27.202Z,7.40
2017-05-09T05:39:55.850Z,7.60
2017-05-09T05:42:24.502Z,7.80
2017-05-09T05:44:53.184Z,7.80
2017-05-09T05:47:21.829Z,7.80
2017-05-09T05:49:50.471Z,7.70
2017-05-09T05:52:19.305Z,7.70
2017-05-09T05:54:47.940Z,7.70
2017-05-09T05:57:16.585Z,7.70
2017-05-09T05:59:45.253Z,7.80
2017-05-09T06:02:13.894Z,7.80
2017-05-09T06:04:42.533Z,7.80
2017-05-09T06:07:11.463Z,8.00
2017-05-09T06:09:40.137Z,8.10
2017-05-09T06:12:08.390Z,8.10
2017-05-09T06:14:37.350Z,8.20
2017-05-09T06:17:06.382Z,8.20
2017-05-09T06:19:35.023Z,8.20
2017-05-09T06:22:04.322Z,8.30
2017-05-09T06:24:33.322Z,8.40
2017-05-09T06:27:01.962Z,8.60
2017-05-09T06:29:30.890Z,8.90
2017-05-09T06:31:59.545Z,8.90
2017-05-09T06:34:28.533Z,8.90
2017-05-09T06:36:57.535Z,8.90
2017-05-09T06:39:25.779Z,8.90
2017-05-09T06:41:54.415Z,9.20
2017-05-09T06:44:23.436Z,9.30
2017-05-09T06:46:52.415Z,9.40
2017-05-09T06:49:21.393Z,9.30
2017-05-09T06:51:50.058Z,9.10
2017-05-09T06:54:19.070Z,9.20
2017-05-09T06:56:47.707Z,9.40
2017-05-09T06:59:16.357Z,9.50
2017-05-09T07:01:44.585Z,9.50
2017-05-09T07:04:13.331Z,9.60
2017-05-09T07:06:41.963Z,9.70
2017-05-09T07:09:10.810Z,9.70
2017-05-09T07:11:39.092Z,9.80
2017-05-09T07:14:07.725Z,10.00
2017-05-09T07:16:36.371Z,10.10
2017-05-09T07:19:05.858Z,10.00
2017-05-09T07:21:34.507Z,10.10
2017-05-09T07:24:02.754Z,10.20
2017-05-09T07:26:32.053Z,10.50
2017-05-09T07:29:01.058Z,10.70
2017-05-09T07:31:29.693Z,10.80
2017-05-09T07:33:58.366Z,10.90
2017-05-09T07:36:27.017Z,11.00
2017-05-09T07:38:55.660Z,11.20
2017-05-09T07:41:24.338Z,11.10
2017-05-09T07:43:52.986Z,11.10
2017-05-09T07:46:21.634Z,11.10
2017-05-09T07:48:49.931Z,11.10
2017-05-09T07:51:18.576Z,11.40
2017-05-09T07:53:47.584Z,11.50
2017-05-09T07:56:16.254Z,11.60
2017-05-09T07:58:45.262Z,12.00
2017-05-09T08:01:13.899Z,12.20
2017-05-09T08:03:42.819Z,11.90
2017-05-09T08:06:11.075Z,11.90
2017-05-09T08:08:39.715Z,12.20
2017-05-09T08:11:08.474Z,12.30
2017-05-09T08:13:37.114Z,12.60
2017-05-09T08:16:05.746Z,12.80
2017-05-09T08:18:34.715Z,12.70
2017-05-09T08:21:03.358Z,12.80
2017-05-09T08:23:31.995Z,12.40
2017-05-09T08:26:00.658Z,12.40
2017-05-09T08:28:29.661Z,11.80
2017-05-09T08:30:58.671Z,12.30
2017-05-09T08:33:26.949Z,12.30
2017-05-09T08:35:55.590Z,12.80
2017-05-09T08:38:24.239Z,12.70
2017-05-09T08:40:52.912Z,13.10
2017-05-09T08:43:21.559Z,13.30
2017-05-09T08:45:50.207Z,13.40
2017-05-09T08:48:18.881Z,13.40
2017-05-09T08:50:47.515Z,13.40
2017-05-09T08:53:16.157Z,13.40
2017-05-09T08:55:45.203Z,13.30
2017-05-09T08:58:13.864Z,13.40
2017-05-09T09:00:42.862Z,13.60
2017-05-09T09:03:11.154Z,13.60
2017-05-09T09:05:39.797Z,14.20
2017-05-09T09:08:08.846Z,13.90
2017-05-09T09:10:37.509Z,14.00
2017-05-09T09:13:06.153Z,14.20
2017-05-09T09:15:34.802Z,13.90
2017-05-09T09:18:03.453Z,14.00
2017-05-09T09:20:32.099Z,14.00
2017-05-09T09:23:00.745Z,14.20
2017-05-09T09:25:29.736Z,14.50
2017-05-09T09:27:58.383Z,14.50
2017-05-09T09:30:27.024Z,14.60
2017-05-09T09:32:55.302Z,14.60
2017-05-09T09:35:23.946Z,15.10
2017-05-09T09:37:52.185Z,15.10
2017-05-09T09:40:21.486Z,14.20
2017-05-09T09:42:50.490Z,14.20
2017-05-09T09:45:19.655Z,14.70
2017-05-09T09:47:48.418Z,14.90
2017-05-09T09:50:17.057Z,15.00
2017-05-09T09:52:45.695Z,15.10
2017-05-09T09:55:14.614Z,15.30
2017-05-09T09:57:43.617Z,14.60
2017-05-09T10:00:11.864Z,14.50
2017-05-09T10:02:40.881Z,14.50
2017-05-09T10:05:09.529Z,15.00
2017-05-09T10:07:37.770Z,15.00
2017-05-09T10:10:06.420Z,14.70
2017-05-09T10:12:34.696Z,14.70
2017-05-09T10:15:02.970Z,15.30
2017-05-09T10:17:31.620Z,15.50
2017-05-09T10:20:00.544Z,15.50
2017-05-09T10:22:29.183Z,16.00
2017-05-09T10:24:57.818Z,15.40
2017-05-09T10:27:26.647Z,15.80
2017-05-09T10:29:54.889Z,15.80
2017-05-09T10:32:23.126Z,16.50
2017-05-09T10:34:52.418Z,14.10
2017-05-09T10:37:21.427Z,14.30
2017-05-09T10:39:49.679Z,14.30
2017-05-09T10:42:18.347Z,14.30
2017-05-09T10:44:46.996Z,14.60
2017-05-09T10:47:15.626Z,15.00
2017-05-09T10:49:44.318Z,15.60
2017-05-09T10:52:12.564Z,15.50
2017-05-09T10:54:41.208Z,16.50
2017-05-09T10:57:09.470Z,16.50
2017-05-09T10:59:38.117Z,17.50
2017-05-09T11:02:06.759Z,16.80
2017-05-09T11:04:35.623Z,17.00
2017-05-09T11:07:04.262Z,16.50
2017-05-09T11:09:33.363Z,16.80
2017-05-09T11:12:02.041Z,16.80
2017-05-09T11:14:30.687Z,16.80
2017-05-09T11:16:58.931Z,16.90
2017-05-09T11:19:27.970Z,17.40
2017-05-09T11:21:56.614Z,17.30
2017-05-09T11:24:25.261Z,18.00
2017-05-09T11:26:54.185Z,16.70
2017-05-09T11:29:23.205Z,17.50
2017-05-09T11:31:51.851Z,18.70
2017-05-09T11:34:20.921Z,19.10
2017-05-09T11:36:49.558Z,18.60
2017-05-09T11:39:18.191Z,17.50
2017-05-09T11:41:46.876Z,17.70
2017-05-09T11:44:15.520Z,17.90
2017-05-09T11:46:44.150Z,17.70
2017-05-09T11:49:13.396Z,17.50
2017-05-09T11:51:42.015Z,17.60
2017-05-09T11:54:10.265Z,17.60
2017-05-09T11:56:39.206Z,17.10
2017-05-09T11:59:07.447Z,17.10
2017-05-09T12:01:35.689Z,16.30
2017-05-09T12:04:04.354Z,16.70
2017-05-09T12:06:32.986Z,17.70
2017-05-09T12:09:01.634Z,17.50
2017-05-09T12:11:30.316Z,18.10
2017-05-09T12:13:58.553Z,18.10
2017-05-09T12:16:26.790Z,18.30
2017-05-09T12:18:55.720Z,19.10
2017-05-09T12:21:24.721Z,19.10
2017-05-09T12:23:52.957Z,19.10
2017-05-09T12:26:21.977Z,19.50
2017-05-09T12:28:50.222Z,19.50
2017-05-09T12:31:18.849Z,20.70
2017-05-09T12:33:47.515Z,20.60
2017-05-09T12:36:16.692Z,19.20
2017-05-09T12:38:45.347Z,19.50
2017-05-09T12:41:14.019Z,19.40
2017-05-09T12:43:42.666Z,17.70
2017-05-09T12:46:11.671Z,16.90
2017-05-09T12:48:40.354Z,16.30
2017-05-09T12:51:09.002Z,16.20
2017-05-09T12:53:37.251Z,16.20
2017-05-09T12:56:05.943Z,18.30
2017-05-09T12:58:34.578Z,18.10
2017-05-09T13:01:03.213Z,19.50
2017-05-09T13:03:31.872Z,19.60
2017-05-09T13:06:00.514Z,19.50
2017-05-09T13:08:30.015Z,19.10
2017-05-09T13:10:59.017Z,18.60
2017-05-09T13:13:27.657Z,19.60
2017-05-09T13:15:56.310Z,20.80
2017-05-09T13:18:24.557Z,20.80
2017-05-09T13:20:52.798Z,20.90
2017-05-09T13:23:21.474Z,21.80
2017-05-09T13:25:50.115Z,21.80
2017-05-09T13:28:18.758Z,21.80
2017-05-09T13:30:47.871Z,21.60
2017-05-09T13:33:16.117Z,21.60
2017-05-09T13:35:44.758Z,17.20
2017-05-09T13:38:13.440Z,17.20
2017-05-09T13:40:42.053Z,15.50
2017-05-09T13:43:10.307Z,15.50
2017-05-09T13:45:38.986Z,18.20
2017-05-09T13:48:07.617Z,19.20
2017-05-09T13:50:36.626Z,20.70
2017-05-09T13:53:05.311Z,21.00
2017-05-09T13:55:34.590Z,20.00
2017-05-09T13:58:03.609Z,19.10
2017-05-09T14:00:32.308Z,19.60
2017-05-09T14:03:00.956Z,20.20
2017-05-09T14:05:29.977Z,19.80
2017-05-09T14:07:58.721Z,18.70
2017-05-09T14:10:27.184Z,18.70
2017-05-09T14:12:55.793Z,17.80
2017-05-09T14:15:25.092Z,17.50
2017-05-09T14:17:54.095Z,16.70
2017-05-09T14:20:22.748Z,16.40
2017-05-09T14:22:51.419Z,15.90
2017-05-09T14:25:20.390Z,15.80
2017-05-09T14:27:49.045Z,15.80
2017-05-09T14:30:18.630Z,15.50
2017-05-09T14:32:47.637Z,15.40
2017-05-09T14:35:15.878Z,15.40
2017-05-09T14:37:44.549Z,15.10
2017-05-09T14:40:13.195Z,15.20
2017-05-09T14:42:41.839Z,15.20
2017-05-09T14:45:10.875Z,15.50
2017-05-09T14:47:39.118Z,15.50
2017-05-09T14:50:07.753Z,15.80
2017-05-09T14:52:36.445Z,15.60
2017-05-09T14:55:05.104Z,16.00
2017-05-09T14:57:34.085Z,16.20
2017-05-09T15:00:03.442Z,15.90
2017-05-09T15:02:32.082Z,14.30
2017-05-09T15:05:00.722Z,13.70
2017-05-09T15:10:04.283Z,14.40
2017-05-09T15:12:33.220Z,15.00
2017-05-09T15:15:02.226Z,15.30
2017-05-09T15:17:30.859Z,14.70
2017-05-09T15:20:00.487Z,14.00
2017-05-09T15:22:29.212Z,14.00
2017-05-09T15:24:57.855Z,13.50
2017-05-09T15:27:27.317Z,13.60
2017-05-09T15:29:55.974Z,13.60
2017-05-09T15:32:25.147Z,13.20
2017-05-09T15:34:54.438Z,13.10
2017-05-09T15:37:23.079Z,13.00
2017-05-09T15:39:51.718Z,12.80
2017-05-09T15:42:20.191Z,12.90
2017-05-09T15:44:49.023Z,13.70
2017-05-09T15:47:17.731Z,13.70
2017-05-09T15:49:46.378Z,14.10
2017-05-09T15:52:15.017Z,14.10
2017-05-09T15:54:44.022Z,13.50
2017-05-09T15:57:13.415Z,13.10
2017-05-09T15:59:42.444Z,13.10
2017-05-09T16:02:11.187Z,13.10
2017-05-09T16:04:40.222Z,13.20
2017-05-09T16:07:08.867Z,13.20
2017-05-09T16:09:37.875Z,13.30
2017-05-09T16:12:06.758Z,13.10
2017-05-09T16:14:35.021Z,13.10
2017-05-09T16:17:03.285Z,13.00
2017-05-09T16:19:32.305Z,12.90
2017-05-09T16:22:01.393Z,13.00
2017-05-09T16:24:30.102Z,13.10
2017-05-09T16:26:58.654Z,13.10
2017-05-09T16:29:27.311Z,13.50
2017-05-09T16:31:55.952Z,13.40
2017-05-09T16:34:24.905Z,13.30
2017-05-09T16:36:53.152Z,13.30
2017-05-09T16:39:22.295Z,13.20
2017-05-09T16:41:50.980Z,13.20
2017-05-09T16:44:19.895Z,13.30
2017-05-09T16:46:48.538Z,13.30
2017-05-09T16:49:17.468Z,13.20
2017-05-09T16:51:46.114Z,13.10
2017-05-09T16:54:14.774Z,12.80
2017-05-09T16:56:44.197Z,12.60
2017-05-09T16:59:12.884Z,12.70
2017-05-09T17:01:41.529Z,12.70
2017-05-09T17:04:10.172Z,12.70
2017-05-09T17:06:38.721Z,12.80
2017-05-09T17:09:06.965Z,12.80
2017-05-09T17:11:36.881Z,12.70
2017-05-09T17:14:05.533Z,12.60
2017-05-09T17:16:34.191Z,12.50
2017-05-09T17:19:03.069Z,12.30
2017-05-09T17:21:31.722Z,12.00
2017-05-09T17:23:59.980Z,12.00
2017-05-09T17:26:28.762Z,12.30
2017-05-09T17:28:57.407Z,12.30
2017-05-09T17:31:26.432Z,12.30
2017-05-09T17:33:54.697Z,12.30
2017-05-09T17:36:23.352Z,12.30
2017-05-09T17:38:52.019Z,12.10
2017-05-09T17:41:20.395Z,12.20
2017-05-09T17:43:49.067Z,12.10
2017-05-09T17:46:17.795Z,11.90
2017-05-09T17:48:46.761Z,11.90
2017-05-09T17:51:15.422Z,11.90
2017-05-09T17:53:43.692Z,11.90
2017-05-09T17:56:13.776Z,11.60
2017-05-09T17:58:43.385Z,11.50
2017-05-09T18:01:14.277Z,11.60
2017-05-09T18:03:42.946Z,11.40
2017-05-09T18:06:11.976Z,11.50
2017-05-09T18:08:41.376Z,11.40
2017-05-09T18:11:10.621Z,11.40
2017-05-09T18:13:39.169Z,11.40
2017-05-09T18:16:08.849Z,11.50
2017-05-09T18:18:38.116Z,11.60
2017-05-09T18:21:07.148Z,11.30
2017-05-09T18:23:36.118Z,10.90
2017-05-09T18:26:06.026Z,11.20
2017-05-09T18:28:35.922Z,11.30
2017-05-09T18:31:05.678Z,11.10
2017-05-09T18:33:35.574Z,11.20
2017-05-09T18:36:04.242Z,11.10
2017-05-09T18:38:32.896Z,10.80
2017-05-09T18:41:02.558Z,10.70
2017-05-09T18:43:31.552Z,10.80
2017-05-09T18:46:00.492Z,10.60
2017-05-09T18:48:30.137Z,10.80
2017-05-09T18:50:58.802Z,10.90
2017-05-09T18:53:27.074Z,10.90
2017-05-09T18:55:56.232Z,10.80
2017-05-09T18:58:25.191Z,10.80
2017-05-09T19:00:55.166Z,10.70
2017-05-09T19:03:23.764Z,10.70
2017-05-09T19:05:52.953Z,10.70
2017-05-09T19:08:24.643Z,10.70
2017-05-09T19:10:57.943Z,10.80
2017-05-09T19:13:26.595Z,10.80
2017-05-09T19:15:56.339Z,10.80
2017-05-09T19:18:25.216Z,10.40
2017-05-09T19:20:54.438Z,10.30
2017-05-09T19:23:24.603Z,10.30
2017-05-09T19:25:55.777Z,10.40
2017-05-09T19:28:27.288Z,10.40
2017-05-09T19:30:56.731Z,10.40
2017-05-09T19:33:27.847Z,10.60
2017-05-09T19:35:57.495Z,10.70
2017-05-09T19:38:26.769Z,10.60
2017-05-09T19:40:56.352Z,10.60
2017-05-09T19:43:25.030Z,10.40
2017-05-09T19:45:53.272Z,10.40
2017-05-09T19:48:23.043Z,10.40
2017-05-09T19:50:52.503Z,10.40
2017-05-09T19:53:24.365Z,10.40
2017-05-09T19:55:54.820Z,10.50
2017-05-09T19:58:27.803Z,10.10
2017-05-09T20:00:56.458Z,10.50
2017-05-09T20:03:27.554Z,10.10
2017-05-09T20:05:55.874Z,10.10
2017-05-09T20:08:24.549Z,9.80
2017-05-09T20:10:54.220Z,10.00
2017-05-09T20:13:23.694Z,10.00
2017-05-09T20:15:52.353Z,9.70
2017-05-09T20:18:21.662Z,9.80
2017-05-09T20:20:53.995Z,9.80
2017-05-09T20:23:22.918Z,9.70
2017-05-09T20:25:52.965Z,10.10
2017-05-09T20:28:22.069Z,9.80
2017-05-09T20:30:52.254Z,9.80
2017-05-09T20:33:20.527Z,9.80
2017-05-09T20:35:51.462Z,9.40
2017-05-09T20:38:20.045Z,9.40
2017-05-09T20:40:48.683Z,9.60
2017-05-09T20:43:16.943Z,9.60
2017-05-09T20:45:45.584Z,9.70
2017-05-09T20:48:14.222Z,9.80
2017-05-09T20:50:43.467Z,9.60
2017-05-09T20:53:11.712Z,9.60
2017-05-09T20:55:41.097Z,9.60
2017-05-09T20:58:09.850Z,9.80
2017-05-09T21:00:38.491Z,9.40
2017-05-09T21:03:07.136Z,9.30
2017-05-09T21:05:36.157Z,9.50
2017-05-09T21:08:04.417Z,9.50
2017-05-09T21:10:33.059Z,9.50
2017-05-09T21:13:01.914Z,9.20
2017-05-09T21:15:30.168Z,9.20
2017-05-09T21:17:58.822Z,9.20
2017-05-09T21:20:27.637Z,9.30
2017-05-09T21:22:56.646Z,8.70
2017-05-09T21:25:25.301Z,8.40
2017-05-09T21:27:53.970Z,8.50
2017-05-09T21:30:22.626Z,8.70
2017-05-09T21:32:51.262Z,8.80
2017-05-09T21:35:20.328Z,8.90
2017-05-09T21:37:48.978Z,8.60
2017-05-09T21:40:17.601Z,8.30
2017-05-09T21:42:46.633Z,8.60
2017-05-09T21:45:15.274Z,9.10
2017-05-09T21:47:43.532Z,9.10
2017-05-09T21:50:12.227Z,8.60
2017-05-09T21:52:40.879Z,8.60
2017-05-09T21:55:09.122Z,8.60
2017-05-09T21:57:38.259Z,8.10
2017-05-09T22:00:06.899Z,8.10
2017-05-09T22:02:35.534Z,8.40
2017-05-09T22:05:04.467Z,8.30
2017-05-09T22:07:33.477Z,8.40
2017-05-09T22:10:02.124Z,8.20
2017-05-09T22:12:30.893Z,8.30
2017-05-09T22:15:17.266Z,8.40
2017-05-09T22:17:52.466Z,8.50
2017-05-09T22:20:21.105Z,8.20
2017-05-09T22:22:50.344Z,8.40
2017-05-09T22:25:19.399Z,8.40
2017-05-09T22:27:48.054Z,8.30
2017-05-09T22:30:16.298Z,8.30
2017-05-09T22:32:44.566Z,8.00
2017-05-09T22:35:13.217Z,8.40
2017-05-09T22:37:41.469Z,8.40
2017-05-09T22:40:10.374Z,8.00
2017-05-09T22:42:38.623Z,8.00
2017-05-09T22:45:07.389Z,8.30
2017-05-09T22:47:36.419Z,8.20
2017-05-09T22:50:05.062Z,8.50
2017-05-09T22:52:33.705Z,8.30
2017-05-09T22:55:02.534Z,8.60
2017-05-09T22:57:30.771Z,8.60
2017-05-09T22:59:59.411Z,8.50
2017-05-09T23:02:28.093Z,8.20
2017-05-09T23:04:56.729Z,7.90
2017-05-09T23:07:25.730Z,8.10
2017-05-09T23:09:54.767Z,8.00
2017-05-09T23:12:23.401Z,8.00
2017-05-09T23:14:52.415Z,7.90
2017-05-09T23:17:21.093Z,7.70
2017-05-09T23:19:49.738Z,7.70
2017-05-09T23:22:18.384Z,7.80
2017-05-09T23:24:47.055Z,7.70
2017-05-09T23:27:15.697Z,7.60
2017-05-09T23:29:44.332Z,7.60
2017-05-09T23:32:13.505Z,7.60
2017-05-09T23:34:42.156Z,7.70
2017-05-09T23:37:11.165Z,7.80
2017-05-09T23:39:40.233Z,7.80
2017-05-09T23:42:08.882Z,7.90
2017-05-09T23:44:37.527Z,7.60
2017-05-09T23:47:06.580Z,7.40
2017-05-09T23:49:35.237Z,7.40
2017-05-09T23:52:03.881Z,7.50
2017-05-09T23:54:32.257Z,7.50
2017-05-09T23:57:01.269Z,7.50
2017-05-09T23:59:29.920Z,7.50
